Time;durP1;ratioP1;P1;durP2;ratioP2;P2;SDS_P1;SDS_P2;PMS_P1;PMS_P2;Temp;Humidity;BMP_temperature;BMP_pressure;BME280_temperature;BME280_humidity;BME280_pressure;Samples;Min_cycle;Max_cycle;Signal;HPM_P1;HPM_P2
2023/03/19 00:00:48;;;;;;;12.05;6.22;;;10.10;99.90;;;;;;5056314;28;20039;-70
2023/03/19 00:03:14;;;;;;;11.77;5.43;;;10.20;99.90;;;;;;5076125;28;20068;-71
2023/03/19 00:05:39;;;;;;;11.05;5.15;;;10.10;99.90;;;;;;5071553;28;20040;-71
2023/03/19 00:08:05;;;;;;;10.70;6.03;;;10.10;99.90;;;;;;5073022;28;20047;-71
2023/03/19 00:10:31;;;;;;;10.63;5.57;;;10.10;99.90;;;;;;5069785;28;20133;-71
2023/03/19 00:12:56;;;;;;;10.60;5.30;;;10.10;99.90;;;;;;5072430;28;20040;-71
2023/03/19 00:15:22;;;;;;;14.00;5.55;;;10.10;99.90;;;;;;5071454;28;20669;-71
2023/03/19 00:17:47;;;;;;;17.52;5.93;;;10.10;99.90;;;;;;5074468;28;20063;-71
2023/03/19 00:20:14;;;;;;;11.20;5.75;;;10.10;99.90;;;;;;5071400;28;20047;-71
2023/03/19 00:22:39;;;;;;;11.00;4.72;;;10.10;99.90;;;;;;5069793;28;20134;-71
2023/03/19 00:25:07;;;;;;;9.93;5.13;;;10.10;99.90;;;;;;5107066;27;20052;-71
2023/03/19 00:27:32;;;;;;;11.13;5.30;;;10.10;99.90;;;;;;5071873;28;20431;-71
2023/03/19 00:29:58;;;;;;;13.30;6.22;;;10.20;99.90;;;;;;5072714;28;20044;-71
2023/03/19 00:32:24;;;;;;;9.35;5.45;;;10.20;99.90;;;;;;5070597;28;20646;-71
2023/03/19 00:34:49;;;;;;;9.95;5.05;;;10.10;99.90;;;;;;5073257;28;20043;-71
2023/03/19 00:37:16;;;;;;;9.98;5.40;;;10.10;99.90;;;;;;5070835;28;20406;-71
2023/03/19 00:39:42;;;;;;;12.25;5.25;;;10.20;99.90;;;;;;5071354;28;20390;-71
2023/03/19 00:42:07;;;;;;;11.38;5.15;;;10.10;99.90;;;;;;5073878;28;20093;-71
2023/03/19 00:44:33;;;;;;;12.13;5.32;;;10.20;99.90;;;;;;5073008;28;20044;-71
2023/03/19 00:46:59;;;;;;;8.98;5.10;;;10.20;99.90;;;;;;5070265;28;20036;-71
2023/03/19 00:49:24;;;;;;;10.27;4.78;;;10.20;99.90;;;;;;5074567;28;20587;-71
2023/03/19 00:51:50;;;;;;;13.27;5.68;;;10.20;99.90;;;;;;5055827;28;20093;-71
2023/03/19 00:54:15;;;;;;;11.10;5.28;;;10.20;99.90;;;;;;5071223;28;20042;-71
2023/03/19 00:56:41;;;;;;;12.45;4.45;;;10.20;99.90;;;;;;5105688;27;20476;-71
2023/03/19 00:59:07;;;;;;;9.70;4.90;;;10.20;99.90;;;;;;5097358;27;20496;-71
2023/03/19 01:01:33;;;;;;;10.07;5.15;;;10.20;99.90;;;;;;5075529;28;20036;-71
2023/03/19 01:03:59;;;;;;;11.18;5.63;;;10.20;99.90;;;;;;5075524;28;20032;-71
2023/03/19 01:06:24;;;;;;;11.68;4.53;;;10.20;99.90;;;;;;5070941;28;20040;-71
2023/03/19 01:08:50;;;;;;;10.85;5.63;;;10.20;99.90;;;;;;5055394;28;20138;-71
2023/03/19 01:11:17;;;;;;;10.07;4.78;;;10.20;99.90;;;;;;5108560;27;20043;-71
2023/03/19 01:13:43;;;;;;;10.45;5.30;;;10.20;99.90;;;;;;5075864;28;20493;-71
2023/03/19 01:16:09;;;;;;;10.15;5.32;;;10.20;99.90;;;;;;5059212;28;20086;-71
2023/03/19 01:18:35;;;;;;;9.80;5.10;;;10.20;99.90;;;;;;5075654;28;20028;-71
2023/03/19 01:21:01;;;;;;;9.98;4.80;;;10.20;99.90;;;;;;5056702;28;20040;-71
2023/03/19 01:23:27;;;;;;;11.57;4.90;;;10.20;99.90;;;;;;5074880;28;20040;-71
2023/03/19 01:25:52;;;;;;;11.90;5.00;;;10.20;99.90;;;;;;5092730;27;20041;-71
2023/03/19 01:28:18;;;;;;;8.52;4.20;;;10.20;99.90;;;;;;5076741;28;20059;-71
2023/03/19 01:30:44;;;;;;;8.95;4.25;;;10.20;99.90;;;;;;5077424;28;20480;-71
2023/03/19 01:33:09;;;;;;;8.40;4.85;;;10.20;99.90;;;;;;5075671;28;20401;-71
2023/03/19 01:35:35;;;;;;;6.85;3.90;;;10.20;99.90;;;;;;5072585;28;20021;-71
2023/03/19 01:38:01;;;;;;;7.57;3.30;;;10.20;99.90;;;;;;5070737;28;20031;-71
2023/03/19 01:40:27;;;;;;;8.20;4.20;;;10.20;99.90;;;;;;5073124;28;20209;-71
2023/03/19 01:42:57;;;;;;;7.47;3.88;;;10.20;99.90;;;;;;5071302;28;20673;-71
2023/03/19 01:45:35;;;;;;;5.70;3.10;;;10.20;99.90;;;;;;5108577;27;21159;-71
2023/03/19 01:48:01;;;;;;;7.53;3.50;;;10.20;99.90;;;;;;5077042;28;20059;-71
2023/03/19 01:50:37;;;;;;;6.38;3.75;;;10.20;99.90;;;;;;5054505;28;21324;-71
2023/03/19 01:53:03;;;;;;;7.20;3.67;;;10.20;99.90;;;;;;5073106;28;21193;-71
2023/03/19 01:55:30;;;;;;;5.53;3.35;;;10.20;99.90;;;;;;5071334;28;20028;-71
2023/03/19 01:57:56;;;;;;;7.88;3.83;;;10.20;99.90;;;;;;5077878;28;20039;-71
2023/03/19 02:00:22;;;;;;;7.57;3.60;;;10.20;99.90;;;;;;5072851;28;20418;-71
2023/03/19 02:02:52;;;;;;;8.95;3.67;;;10.20;99.90;;;;;;5069004;28;20032;-71
2023/03/19 02:05:24;;;;;;;8.13;3.40;;;10.10;99.90;;;;;;5070363;28;21168;-72
2023/03/19 02:07:53;;;;;;;7.15;3.58;;;10.20;99.90;;;;;;5076661;28;20079;-71
2023/03/19 02:10:20;;;;;;;7.15;4.05;;;10.20;99.90;;;;;;5103310;27;20567;-72
2023/03/19 02:12:46;;;;;;;8.43;3.90;;;10.20;99.90;;;;;;5076415;28;20059;-71
2023/03/19 02:15:12;;;;;;;10.45;3.70;;;10.10;99.90;;;;;;5073811;28;20049;-71
2023/03/19 02:17:39;;;;;;;7.45;3.85;;;10.10;99.90;;;;;;5074402;28;20028;-71
2023/03/19 02:20:21;;;;;;;8.73;4.20;;;10.10;99.90;;;;;;5069965;28;20520;-71
2023/03/19 02:23:02;;;;;;;8.27;4.18;;;10.10;99.90;;;;;;5079766;28;20098;-71
2023/03/19 02:25:38;;;;;;;6.45;3.42;;;10.10;99.90;;;;;;5070592;28;20044;-71
2023/03/19 02:28:04;;;;;;;;;;;10.10;99.90;;;;;;5090173;28;20149;-71
2023/03/19 02:30:32;;;;;;;8.95;4.13;;;10.10;99.90;;;;;;5108676;27;20026;-71
2023/03/19 02:32:58;;;;;;;8.18;3.83;;;10.00;99.90;;;;;;5074903;28;20032;-71
2023/03/19 02:35:25;;;;;;;7.82;3.65;;;10.00;99.90;;;;;;5056098;28;20093;-71
2023/03/19 02:37:50;;;;;;;7.55;3.95;;;10.10;99.90;;;;;;5075648;28;20043;-71
2023/03/19 02:40:23;;;;;;;10.05;3.95;;;10.00;99.90;;;;;;5072098;28;20040;-71
2023/03/19 02:42:49;;;;;;;8.63;3.90;;;10.00;99.90;;;;;;5075214;28;20048;-71
2023/03/19 02:45:15;;;;;;;8.75;3.70;;;10.00;99.90;;;;;;5073649;28;20401;-71
2023/03/19 02:47:41;;;;;;;9.68;4.47;;;9.90;99.90;;;;;;5075546;28;20085;-71
2023/03/19 02:50:08;;;;;;;8.48;4.15;;;9.90;99.90;;;;;;5073232;28;20044;-71
2023/03/19 02:52:34;;;;;;;8.68;4.38;;;10.00;99.90;;;;;;5072035;28;20115;-71
2023/03/19 02:55:00;;;;;;;10.93;4.63;;;9.90;99.90;;;;;;5071425;28;20385;-71
2023/03/19 02:57:25;;;;;;;9.25;4.38;;;9.90;99.90;;;;;;5072641;28;20039;-71
2023/03/19 02:59:51;;;;;;;8.13;4.15;;;9.90;99.90;;;;;;5073355;28;20083;-71
2023/03/19 03:02:17;;;;;;;10.13;4.40;;;9.90;99.90;;;;;;5089458;28;20037;-71
2023/03/19 03:04:42;;;;;;;8.77;4.00;;;9.90;99.90;;;;;;5071872;28;20028;-71
2023/03/19 03:07:08;;;;;;;8.50;4.72;;;9.90;99.90;;;;;;5074529;28;20405;-71
2023/03/19 03:09:34;;;;;;;8.45;4.30;;;9.90;99.90;;;;;;5073023;28;20047;-71
2023/03/19 03:12:00;;;;;;;7.88;3.97;;;9.90;99.90;;;;;;5053001;28;20698;-71
2023/03/19 03:14:26;;;;;;;9.57;4.28;;;9.90;99.90;;;;;;5074833;28;20131;-71
2023/03/19 03:16:52;;;;;;;7.63;4.10;;;9.90;99.90;;;;;;5071060;28;20043;-71
2023/03/19 03:19:18;;;;;;;9.38;5.00;;;9.80;99.90;;;;;;5072377;28;20462;-71
2023/03/19 03:21:44;;;;;;;9.23;4.90;;;9.80;99.90;;;;;;5072219;28;20439;-70
2023/03/19 03:24:09;;;;;;;9.52;5.20;;;9.80;99.90;;;;;;5074344;28;20040;-70
2023/03/19 03:26:37;;;;;;;8.30;4.30;;;9.80;99.90;;;;;;5072110;28;20036;-71
2023/03/19 03:29:04;;;;;;;10.93;4.68;;;9.80;99.90;;;;;;5104063;27;20043;-71
2023/03/19 03:31:30;;;;;;;8.57;4.55;;;9.80;99.90;;;;;;5058354;28;20106;-71
2023/03/19 03:33:55;;;;;;;12.05;4.88;;;9.80;99.90;;;;;;5073738;28;20036;-70
2023/03/19 03:36:21;;;;;;;10.85;4.55;;;9.80;99.90;;;;;;5069600;28;20293;-71
2023/03/19 03:38:47;;;;;;;8.10;3.83;;;9.80;99.90;;;;;;5052446;28;20043;-71
2023/03/19 03:41:12;;;;;;;7.25;4.13;;;9.80;99.90;;;;;;5072926;28;20043;-70
2023/03/19 03:43:39;;;;;;;6.18;3.88;;;9.80;99.90;;;;;;5073367;28;20034;-71
2023/03/19 03:46:06;;;;;;;6.15;3.85;;;9.70;99.90;;;;;;5072020;28;20105;-71
2023/03/19 03:48:32;;;;;;;7.50;3.67;;;9.70;99.90;;;;;;5071418;28;20029;-70
2023/03/19 03:50:57;;;;;;;9.00;3.53;;;9.70;99.90;;;;;;5071464;28;20058;-71
2023/03/19 03:53:23;;;;;;;6.75;3.10;;;9.70;99.90;;;;;;5075196;28;20044;-71
2023/03/19 03:55:48;;;;;;;9.57;3.88;;;9.70;99.90;;;;;;5075202;28;20024;-71
2023/03/19 03:58:15;;;;;;;6.75;2.88;;;9.80;99.90;;;;;;5072174;28;20078;-71
2023/03/19 04:00:41;;;;;;;7.53;3.63;;;9.70;99.90;;;;;;5103662;27;20054;-71
2023/03/19 04:03:07;;;;;;;6.60;2.88;;;9.80;99.90;;;;;;5092401;28;20048;-71
2023/03/19 04:05:33;;;;;;;6.13;2.63;;;9.80;99.90;;;;;;5073559;28;20024;-71
2023/03/19 04:07:59;;;;;;;6.35;2.80;;;9.80;99.90;;;;;;5077202;28;20543;-71
2023/03/19 04:10:24;;;;;;;5.45;2.95;;;9.80;99.90;;;;;;5071136;28;20413;-71
2023/03/19 04:12:50;;;;;;;6.43;2.63;;;9.80;99.90;;;;;;5058377;28;20047;-71
2023/03/19 04:15:16;;;;;;;5.35;2.60;;;9.80;99.90;;;;;;5067370;28;20524;-71
2023/03/19 04:17:42;;;;;;;4.55;2.35;;;9.80;99.90;;;;;;5054660;28;20558;-71
2023/03/19 04:20:08;;;;;;;5.28;2.63;;;9.90;99.90;;;;;;5068774;28;20044;-71
2023/03/19 04:22:34;;;;;;;5.95;2.33;;;9.80;99.90;;;;;;5072022;28;20065;-71
2023/03/19 04:25:00;;;;;;;4.10;2.40;;;9.80;99.90;;;;;;5072575;28;20036;-71
2023/03/19 04:27:25;;;;;;;5.70;2.70;;;9.80;99.90;;;;;;5071773;28;20137;-71
2023/03/19 04:29:51;;;;;;;4.65;1.77;;;9.90;99.90;;;;;;5070959;28;20123;-71
2023/03/19 04:32:16;;;;;;;4.03;2.70;;;9.80;99.90;;;;;;5071191;28;20542;-71
2023/03/19 04:34:42;;;;;;;4.45;2.30;;;9.90;99.90;;;;;;5069466;28;20037;-71
2023/03/19 04:37:09;;;;;;;7.28;2.15;;;9.80;99.90;;;;;;5102291;27;20505;-71
2023/03/19 04:39:35;;;;;;;3.55;1.85;;;9.80;99.90;;;;;;5052485;28;20024;-71
2023/03/19 04:42:02;;;;;;;5.10;2.03;;;9.90;99.90;;;;;;5071027;28;20531;-71
2023/03/19 04:44:28;;;;;;;3.90;1.80;;;9.80;99.90;;;;;;5073923;28;20797;-71
2023/03/19 04:46:53;;;;;;;5.25;2.40;;;9.80;99.90;;;;;;5071050;28;20565;-70
2023/03/19 04:49:19;;;;;;;6.82;2.00;;;9.80;99.90;;;;;;5070299;28;20174;-70
2023/03/19 04:51:45;;;;;;;4.45;2.10;;;9.70;99.90;;;;;;5055434;28;20421;-71
2023/03/19 04:54:11;;;;;;;5.90;1.90;;;9.70;99.90;;;;;;5070694;28;20127;-71
2023/03/19 04:56:36;;;;;;;4.70;2.25;;;9.70;99.90;;;;;;5068746;28;20041;-71
2023/03/19 04:59:02;;;;;;;4.20;1.73;;;9.80;99.90;;;;;;5074258;28;20053;-71
2023/03/19 05:01:28;;;;;;;4.85;2.92;;;9.70;99.90;;;;;;5070548;28;20397;-71
2023/03/19 05:03:53;;;;;;;5.43;1.95;;;9.60;99.90;;;;;;5071695;28;20044;-71
2023/03/19 05:06:19;;;;;;;5.75;1.95;;;9.60;99.90;;;;;;5070720;28;20074;-71
2023/03/19 05:08:45;;;;;;;3.13;1.73;;;9.60;99.90;;;;;;5074311;28;20044;-71
2023/03/19 05:11:11;;;;;;;3.60;1.70;;;9.50;99.90;;;;;;5073576;28;20559;-71
2023/03/19 05:13:36;;;;;;;3.17;1.88;;;9.50;99.90;;;;;;5072329;28;20080;-71
2023/03/19 05:16:02;;;;;;;3.20;1.42;;;9.50;99.90;;;;;;5072255;28;20043;-71
2023/03/19 05:18:28;;;;;;;4.20;1.90;;;9.40;99.90;;;;;;5052297;28;20090;-71
2023/03/19 05:20:54;;;;;;;3.42;1.63;;;9.40;99.90;;;;;;5070250;28;20033;-71
2023/03/19 05:23:20;;;;;;;3.50;1.65;;;9.40;99.90;;;;;;5072661;28;20068;-71
2023/03/19 05:25:46;;;;;;;3.97;1.67;;;9.40;99.90;;;;;;5068490;28;20044;-71
2023/03/19 05:28:12;;;;;;;3.67;1.75;;;9.40;99.90;;;;;;5074107;28;20040;-70
2023/03/19 05:30:38;;;;;;;4.03;1.85;;;9.30;99.90;;;;;;5102729;28;20044;-71
2023/03/19 05:33:04;;;;;;;2.58;1.40;;;9.30;99.90;;;;;;5068042;28;20496;-71
2023/03/19 05:35:30;;;;;;;3.72;1.50;;;9.30;99.90;;;;;;5059358;28;20180;-71
2023/03/19 05:37:56;;;;;;;3.00;1.30;;;9.30;99.90;;;;;;5076469;28;20055;-71
2023/03/19 05:40:22;;;;;;;2.00;1.23;;;9.30;99.90;;;;;;5094304;28;20044;-71
2023/03/19 05:42:48;;;;;;;3.50;1.80;;;9.20;99.90;;;;;;5061697;28;20044;-71
2023/03/19 05:45:16;;;;;;;3.65;1.55;;;9.20;99.90;;;;;;5073215;28;20176;-71
2023/03/19 05:47:42;;;;;;;3.67;1.73;;;9.10;99.90;;;;;;5078178;28;20051;-71
2023/03/19 05:50:08;;;;;;;4.40;1.73;;;9.10;99.90;;;;;;5071149;28;20044;-71
2023/03/19 05:52:34;;;;;;;3.05;1.40;;;9.10;99.90;;;;;;5110115;27;20040;-71
2023/03/19 05:55:00;;;;;;;3.75;1.25;;;9.10;99.90;;;;;;5075873;28;20195;-71
2023/03/19 05:57:26;;;;;;;4.60;1.50;;;9.10;99.90;;;;;;5063000;28;20032;-70
2023/03/19 05:59:51;;;;;;;3.05;1.70;;;9.10;99.90;;;;;;5073783;28;20089;-71
2023/03/19 06:02:17;;;;;;;2.53;1.30;;;9.20;99.90;;;;;;5075121;28;20089;-71
2023/03/19 06:04:43;;;;;;;4.90;1.60;;;9.10;99.90;;;;;;5057808;28;20489;-71
2023/03/19 06:07:09;;;;;;;3.28;1.38;;;9.10;99.90;;;;;;5059099;28;21516;-71
2023/03/19 06:09:34;;;;;;;4.13;1.55;;;9.10;99.90;;;;;;5075975;28;20044;-71
2023/03/19 06:12:00;;;;;;;3.03;1.33;;;9.00;99.90;;;;;;5073175;28;20049;-71
2023/03/19 06:14:26;;;;;;;3.70;1.45;;;9.00;99.90;;;;;;5078905;28;20192;-71
2023/03/19 06:16:51;;;;;;;2.35;1.13;;;9.00;99.90;;;;;;5076841;28;20131;-71
2023/03/19 06:19:17;;;;;;;2.72;1.30;;;9.00;99.90;;;;;;5075302;28;20044;-71
2023/03/19 06:21:43;;;;;;;2.28;1.40;;;9.00;99.90;;;;;;5070165;28;20087;-71
2023/03/19 06:24:09;;;;;;;3.28;1.90;;;9.10;99.90;;;;;;5088595;28;20451;-71
2023/03/19 06:26:36;;;;;;;4.18;1.23;;;9.00;99.90;;;;;;5073314;28;20486;-71
2023/03/19 06:29:01;;;;;;;3.15;1.48;;;9.00;99.90;;;;;;5071313;28;20067;-71
2023/03/19 06:31:27;;;;;;;3.28;1.35;;;9.00;99.90;;;;;;5069225;28;20136;-71
2023/03/19 06:33:53;;;;;;;3.72;1.55;;;9.00;99.90;;;;;;5072149;28;20274;-71
2023/03/19 06:36:19;;;;;;;3.85;1.80;;;9.00;99.90;;;;;;5104842;27;20047;-71
2023/03/19 06:38:45;;;;;;;5.55;1.80;;;9.00;99.90;;;;;;5072464;28;20036;-71
2023/03/19 06:41:11;;;;;;;3.22;1.70;;;9.10;99.90;;;;;;5073148;28;20048;-71
2023/03/19 06:43:40;;;;;;;1.90;1.08;;;9.10;99.90;;;;;;5074526;28;20115;-71
2023/03/19 06:46:05;;;;;;;4.22;1.48;;;9.10;99.90;;;;;;5072812;28;20043;-71
2023/03/19 06:48:32;;;;;;;4.55;1.58;;;9.10;99.90;;;;;;5070067;28;20529;-71
2023/03/19 06:50:58;;;;;;;4.47;1.65;;;9.20;99.90;;;;;;5071523;28;20052;-71
2023/03/19 06:53:24;;;;;;;4.43;1.73;;;9.20;99.90;;;;;;5073583;28;20051;-71
2023/03/19 06:55:50;;;;;;;3.95;1.60;;;9.20;99.90;;;;;;5055622;28;20684;-71
2023/03/19 06:58:16;;;;;;;3.50;1.70;;;9.20;99.90;;;;;;5075686;28;20145;-71
2023/03/19 07:00:41;;;;;;;3.88;1.73;;;9.20;99.90;;;;;;5071520;28;20036;-71
2023/03/19 07:03:08;;;;;;;3.95;1.70;;;9.20;99.90;;;;;;5074087;28;20059;-71
2023/03/19 07:05:34;;;;;;;4.55;2.08;;;9.20;99.90;;;;;;5072788;28;20047;-71
2023/03/19 07:07:59;;;;;;;3.95;1.58;;;9.10;99.90;;;;;;5101232;27;20044;-70
2023/03/19 07:10:25;;;;;;;5.15;2.00;;;9.10;99.90;;;;;;5076108;28;20516;-71
2023/03/19 07:12:51;;;;;;;3.70;1.75;;;9.10;99.90;;;;;;5076498;28;20457;-71
2023/03/19 07:15:19;;;;;;;5.68;2.22;;;9.10;99.90;;;;;;5074554;28;20397;-71
2023/03/19 07:17:48;;;;;;;5.20;2.28;;;9.20;99.90;;;;;;5086649;28;20044;-71
2023/03/19 07:20:14;;;;;;;3.63;1.85;;;9.20;99.90;;;;;;5049951;28;20040;-71
2023/03/19 07:22:40;;;;;;;4.30;1.58;;;9.20;99.90;;;;;;5073865;28;20036;-71
2023/03/19 07:25:06;;;;;;;3.60;1.98;;;9.20;99.90;;;;;;5075035;28;20674;-70
2023/03/19 07:27:32;;;;;;;4.47;1.77;;;9.30;99.90;;;;;;5110025;27;20448;-71
2023/03/19 07:29:58;;;;;;;6.30;2.42;;;9.30;99.90;;;;;;5071471;28;20123;-70
2023/03/19 07:32:24;;;;;;;5.53;2.33;;;9.40;99.90;;;;;;5076939;28;20445;-70
2023/03/19 07:34:50;;;;;;;6.05;2.40;;;9.40;99.90;;;;;;5075028;28;20036;-71
2023/03/19 07:37:16;;;;;;;4.47;2.60;;;9.40;99.90;;;;;;5071827;28;22313;-71
2023/03/19 07:39:41;;;;;;;5.20;2.58;;;9.50;99.90;;;;;;5087852;28;20028;-71
2023/03/19 07:42:07;;;;;;;6.00;2.88;;;9.50;99.90;;;;;;5073846;28;20036;-70
2023/03/19 07:44:32;;;;;;;7.95;3.20;;;9.60;99.90;;;;;;5069001;28;20035;-70
2023/03/19 07:46:58;;;;;;;5.43;2.67;;;9.60;99.90;;;;;;5061678;28;20036;-71
2023/03/19 07:49:24;;;;;;;7.53;3.15;;;9.70;99.90;;;;;;5052551;28;20036;-71
2023/03/19 07:51:50;;;;;;;7.07;2.70;;;9.70;99.90;;;;;;5070766;28;20040;-70
2023/03/19 07:54:15;;;;;;;8.27;3.22;;;9.70;99.90;;;;;;5053320;28;20043;-71
2023/03/19 07:56:41;;;;;;;7.38;2.95;;;9.70;99.90;;;;;;5049264;28;20032;-71
2023/03/19 07:59:06;;;;;;;6.30;2.72;;;9.80;99.90;;;;;;5074308;28;20440;-70
2023/03/19 08:01:32;;;;;;;7.57;3.28;;;9.90;99.90;;;;;;5072834;28;20050;-70
2023/03/19 08:03:58;;;;;;;7.28;2.90;;;9.90;99.90;;;;;;5063561;28;20056;-70
2023/03/19 08:06:23;;;;;;;8.25;3.67;;;10.00;99.90;;;;;;5058017;28;20035;-70
2023/03/19 08:08:49;;;;;;;9.57;3.65;;;10.10;99.90;;;;;;5098264;27;20060;-71
2023/03/19 08:11:15;;;;;;;9.30;3.90;;;10.10;99.90;;;;;;5065693;28;20414;-71
2023/03/19 08:13:42;;;;;;;9.07;3.75;;;10.20;99.90;;;;;;5044161;28;20543;-71
2023/03/19 08:16:07;;;;;;;13.93;4.28;;;10.30;99.90;;;;;;5071943;28;20050;-70
2023/03/19 08:18:34;;;;;;;9.65;4.07;;;10.40;99.90;;;;;;5079230;28;20036;-71
2023/03/19 08:21:00;;;;;;;10.45;4.50;;;10.50;99.90;;;;;;5072768;28;20052;-71
2023/03/19 08:23:25;;;;;;;9.80;3.80;;;10.50;99.90;;;;;;5065507;28;20036;-71
2023/03/19 08:25:52;;;;;;;10.77;4.70;;;10.50;99.90;;;;;;5078972;28;20032;-72
2023/03/19 08:28:18;;;;;;;8.18;3.88;;;10.50;99.90;;;;;;5100032;28;20039;-72
2023/03/19 08:30:44;;;;;;;8.13;3.70;;;10.60;99.90;;;;;;5076644;28;20703;-71
2023/03/19 08:33:10;;;;;;;9.07;4.07;;;10.70;99.90;;;;;;5084685;28;20043;-71
2023/03/19 08:35:35;;;;;;;8.48;3.97;;;10.80;99.90;;;;;;5084777;28;20028;-70
2023/03/19 08:38:01;;;;;;;8.93;3.83;;;10.90;99.90;;;;;;5067680;28;20036;-70
2023/03/19 08:40:27;;;;;;;9.77;4.15;;;11.10;99.90;;;;;;5086106;28;20039;-70
2023/03/19 08:42:53;;;;;;;7.75;3.72;;;11.10;99.90;;;;;;5083685;28;20085;-70
2023/03/19 08:45:19;;;;;;;7.53;3.83;;;11.20;99.90;;;;;;5083243;28;20086;-71
2023/03/19 08:47:46;;;;;;;9.07;4.05;;;11.00;99.90;;;;;;5082236;28;20398;-71
2023/03/19 08:50:12;;;;;;;8.20;4.07;;;11.00;99.90;;;;;;5083857;28;20119;-71
2023/03/19 08:52:38;;;;;;;8.93;3.50;;;10.90;99.90;;;;;;5061750;28;20447;-71
2023/03/19 08:55:04;;;;;;;8.32;3.75;;;10.90;99.90;;;;;;5085111;28;20494;-71
2023/03/19 08:57:31;;;;;;;7.55;3.35;;;10.90;99.90;;;;;;5077459;28;20042;-71
2023/03/19 08:59:56;;;;;;;6.70;3.53;;;10.90;99.90;;;;;;5077800;28;20042;-71
2023/03/19 09:02:22;;;;;;;6.82;3.83;;;10.90;99.90;;;;;;5074864;28;20173;-71
2023/03/19 09:04:48;;;;;;;7.93;3.97;;;10.80;99.90;;;;;;5073385;28;20036;-71
2023/03/19 09:07:14;;;;;;;9.68;3.80;;;10.80;99.90;;;;;;5078968;28;20033;-71
2023/03/19 09:09:41;;;;;;;8.95;3.95;;;10.80;99.90;;;;;;5054299;28;20124;-71
2023/03/19 09:12:09;;;;;;;10.68;4.18;;;10.80;99.90;;;;;;5081377;28;20063;-71
2023/03/19 09:14:35;;;;;;;8.35;3.13;;;10.80;99.90;;;;;;5077926;28;20067;-71
2023/03/19 09:17:01;;;;;;;7.35;3.95;;;10.90;99.90;;;;;;5068448;28;20066;-71
2023/03/19 09:19:27;;;;;;;9.00;4.07;;;10.90;99.90;;;;;;5086184;28;20044;-71
2023/03/19 09:21:53;;;;;;;5.63;3.05;;;10.90;99.90;;;;;;5086638;28;20051;-71
2023/03/19 09:24:18;;;;;;;7.28;3.28;;;10.90;99.90;;;;;;5084111;28;20512;-71
2023/03/19 09:26:45;;;;;;;6.38;3.17;;;11.00;99.90;;;;;;5084087;28;20043;-71
2023/03/19 09:29:11;;;;;;;6.05;3.03;;;11.00;99.90;;;;;;5076504;28;20086;-71
2023/03/19 09:31:37;;;;;;;6.97;3.50;;;11.10;99.90;;;;;;5068329;28;20074;-71
2023/03/19 09:34:03;;;;;;;7.30;3.17;;;11.10;99.90;;;;;;5076255;28;20090;-71
2023/03/19 09:36:29;;;;;;;6.30;3.17;;;11.10;99.90;;;;;;5107430;27;20044;-71
2023/03/19 09:38:55;;;;;;;6.97;3.50;;;11.20;99.90;;;;;;5110041;27;20035;-71
2023/03/19 09:41:33;;;;;;;7.22;3.40;;;11.20;99.90;;;;;;5077043;28;20044;-71
2023/03/19 09:44:26;;;;;;;6.88;3.05;;;11.20;99.90;;;;;;5078500;28;20050;-71
2023/03/19 09:47:04;;;;;;;7.40;3.22;;;11.20;99.90;;;;;;5074747;28;20044;-71
2023/03/19 09:49:36;;;;;;;6.60;3.08;;;11.30;99.90;;;;;;5054632;28;20130;-71
2023/03/19 09:52:34;;;;;;;4.80;2.85;;;11.30;99.90;;;;;;5073799;28;20063;-71
2023/03/19 09:55:17;;;;;;;6.55;3.00;;;11.40;99.90;;;;;;5067991;28;20033;-71
2023/03/19 09:57:43;;;;;;;6.72;2.88;;;11.40;99.90;;;;;;5079434;28;20123;-71
2023/03/19 10:00:21;;;;;;;7.03;3.25;;;11.50;99.90;;;;;;5080730;28;20503;-71
2023/03/19 10:03:08;;;;;;;7.53;3.38;;;11.50;99.90;;;;;;5102014;27;21273;-71
2023/03/19 10:05:52;;;;;;;4.63;2.40;;;11.50;99.90;;;;;;5069360;28;20421;-71
2023/03/19 10:08:45;;;;;;;5.55;2.67;;;11.60;99.90;;;;;;5058506;28;20036;-71
2023/03/19 10:11:44;;;;;;;5.75;2.53;;;11.70;99.90;;;;;;5075399;28;20036;-71
2023/03/19 10:14:43;;;;;;;6.45;2.78;;;11.70;99.90;;;;;;5067340;28;20076;-71
2023/03/19 10:17:24;;;;;;;5.72;2.90;;;11.70;99.90;;;;;;5071978;28;20059;-71
2023/03/19 10:19:55;;;;;;;6.55;2.72;;;11.70;99.90;;;;;;5068273;28;20032;-71
2023/03/19 10:22:42;;;;;;;6.63;3.22;;;11.70;99.90;;;;;;5102475;27;20036;-71
2023/03/19 10:25:18;;;;;;;6.18;2.67;;;11.70;99.90;;;;;;5069973;28;20509;-71
2023/03/19 10:27:45;;;;;;;;;;;11.80;99.90;;;;;;5075015;28;20089;-74
2023/03/19 10:30:13;;;;;;;4.68;2.28;;;11.70;99.90;;;;;;5087188;28;19916;-74
2023/03/19 10:32:47;;;;;;;6.30;3.03;;;11.70;99.90;;;;;;5096608;27;20046;-70
2023/03/19 10:35:23;;;;;;;7.82;3.05;;;11.70;99.90;;;;;;5061021;28;20036;-71
2023/03/19 10:37:53;;;;;;;6.35;2.90;;;11.70;99.90;;;;;;5060713;28;20127;-71
2023/03/19 10:40:28;;;;;;;6.68;2.88;;;11.70;99.90;;;;;;5072810;28;20409;-71
2023/03/19 10:43:15;;;;;;;5.93;2.90;;;11.70;99.90;;;;;;5067586;28;20050;-71
2023/03/19 10:45:41;;;;;;;7.32;3.53;;;11.70;99.90;;;;;;5074602;28;20377;-71
2023/03/19 10:48:12;;;;;;;6.63;3.40;;;11.70;99.90;;;;;;5053696;28;20036;-71
2023/03/19 10:50:47;;;;;;;7.22;3.25;;;11.70;99.90;;;;;;5068952;28;20043;-71
2023/03/19 10:53:13;;;;;;;8.88;3.78;;;11.80;99.90;;;;;;5076053;28;20511;-71
2023/03/19 10:55:46;;;;;;;9.38;3.45;;;11.80;99.90;;;;;;5074686;28;20036;-71
2023/03/19 10:58:18;;;;;;;8.07;3.30;;;11.80;99.90;;;;;;5068744;28;20081;-71
2023/03/19 11:00:48;;;;;;;6.90;3.40;;;11.80;99.90;;;;;;5096595;27;20048;-71
2023/03/19 11:03:28;;;;;;;6.18;3.30;;;11.90;99.90;;;;;;5071333;28;20065;-71
2023/03/19 11:06:17;;;;;;;7.55;3.85;;;11.90;99.90;;;;;;5068521;28;20044;-71
2023/03/19 11:08:54;;;;;;;10.82;3.67;;;11.90;99.90;;;;;;5071782;28;20067;-71
2023/03/19 11:11:41;;;;;;;8.48;3.50;;;11.90;99.90;;;;;;5070493;28;20496;-71
2023/03/19 11:14:17;;;;;;;9.35;3.80;;;11.90;99.90;;;;;;5071115;28;20048;-71
2023/03/19 11:17:05;;;;;;;7.78;3.72;;;11.90;99.90;;;;;;5070394;28;20040;-71
2023/03/19 11:19:47;;;;;;;8.10;4.03;;;11.90;99.90;;;;;;5066733;28;20032;-71
2023/03/19 11:22:20;;;;;;;6.43;3.75;;;12.00;99.90;;;;;;5086267;28;20074;-71
2023/03/19 11:24:55;;;;;;;10.65;4.03;;;12.00;99.90;;;;;;5086121;28;20040;-71
2023/03/19 11:27:34;;;;;;;7.30;3.30;;;12.10;99.90;;;;;;5067256;28;20406;-71
2023/03/19 11:30:01;;;;;;;10.57;4.18;;;12.10;99.90;;;;;;5070151;28;20127;-71
2023/03/19 11:33:04;;;;;;;7.30;3.70;;;12.10;99.90;;;;;;5069935;28;20085;-71
2023/03/19 11:35:37;;;;;;;8.63;4.00;;;12.10;99.90;;;;;;5072403;28;20485;-71
2023/03/19 11:38:07;;;;;;;7.35;4.25;;;12.10;99.90;;;;;;5069126;28;20059;-71
2023/03/19 11:40:44;;;;;;;10.13;4.43;;;12.20;99.90;;;;;;5072294;28;20127;-71
2023/03/19 11:43:28;;;;;;;8.93;4.63;;;12.20;99.90;;;;;;5079494;28;20051;-71
2023/03/19 11:46:01;;;;;;;11.23;4.93;;;12.20;99.90;;;;;;5068923;28;20052;-71
2023/03/19 11:48:58;;;;;;;7.90;4.22;;;12.20;99.90;;;;;;5067726;28;20505;-71
2023/03/19 11:51:50;;;;;;;8.60;4.85;;;12.30;99.90;;;;;;5049567;28;20040;-71
2023/03/19 11:54:34;;;;;;;9.57;4.40;;;12.20;99.90;;;;;;5100347;27;20123;-71
2023/03/19 11:57:07;;;;;;;10.40;4.60;;;12.20;99.90;;;;;;5101278;27;20029;-71
2023/03/19 11:59:55;;;;;;;8.82;3.88;;;12.20;99.90;;;;;;5071601;28;20032;-71
2023/03/19 12:02:36;;;;;;;7.80;3.80;;;12.20;99.90;;;;;;5068353;28;20051;-71
2023/03/19 12:05:15;;;;;;;8.65;4.10;;;12.20;99.90;;;;;;5076474;28;20088;-71
2023/03/19 12:07:47;;;;;;;10.05;4.13;;;12.10;99.90;;;;;;5079465;28;20081;-71
2023/03/19 12:10:28;;;;;;;8.73;4.30;;;12.10;99.90;;;;;;5077568;28;20442;-71
2023/03/19 12:13:32;;;;;;;10.57;4.35;;;12.10;99.90;;;;;;5095110;28;20541;-71
2023/03/19 12:16:16;;;;;;;9.90;3.85;;;12.10;99.90;;;;;;5080392;28;20036;-71
2023/03/19 12:18:59;;;;;;;8.02;3.97;;;12.20;99.90;;;;;;5079928;28;20041;-71
2023/03/19 12:21:40;;;;;;;8.30;4.20;;;12.30;99.90;;;;;;5086897;28;20040;-71
2023/03/19 12:24:36;;;;;;;8.25;3.83;;;12.30;99.90;;;;;;5113945;27;20262;-71
2023/03/19 12:27:18;;;;;;;6.57;3.42;;;12.40;99.90;;;;;;5087280;28;20678;-71
2023/03/19 12:29:58;;;;;;;8.60;3.58;;;12.40;99.90;;;;;;5070081;28;20043;-71
2023/03/19 12:32:45;;;;;;;9.02;4.35;;;12.40;99.90;;;;;;5087404;28;20120;-71
2023/03/19 12:35:17;;;;;;;8.10;4.20;;;12.40;99.90;;;;;;5084356;28;20036;-71
2023/03/19 12:38:12;;;;;;;8.57;4.25;;;12.40;99.90;;;;;;5078490;28;20185;-71
2023/03/19 12:41:04;;;;;;;6.75;3.67;;;12.40;99.90;;;;;;5082599;28;20068;-71
2023/03/19 12:43:38;;;;;;;11.45;4.25;;;12.50;99.90;;;;;;5083029;28;20041;-71
2023/03/19 12:46:13;;;;;;;7.07;3.33;;;12.50;99.90;;;;;;5069480;28;20414;-70
2023/03/19 12:49:06;;;;;;;10.30;4.03;;;12.50;99.90;;;;;;5070540;28;20044;-70
2023/03/19 12:51:35;;;;;;;11.20;3.95;;;12.50;99.90;;;;;;5067648;28;20402;-70
2023/03/19 12:54:06;;;;;;;9.23;4.13;;;12.40;99.90;;;;;;5087425;28;20040;-70
2023/03/19 12:56:35;;;;;;;11.27;4.03;;;12.40;99.90;;;;;;5084073;28;20111;-70
2023/03/19 12:59:19;;;;;;;9.23;4.15;;;12.40;99.90;;;;;;5070054;28;20058;-71
2023/03/19 13:01:49;;;;;;;8.85;4.00;;;12.40;99.90;;;;;;5088043;28;20040;-71